Time;durP1;ratioP1;P1;durP2;ratioP2;P2;SDS_P1;SDS_P2;PMS_P1;PMS_P2;Temp;Humidity;BMP_temperature;BMP_pressure;BME280_temperature;BME280_humidity;BME280_pressure;Samples;Min_cycle;Max_cycle;Signal;HPM_P1;HPM_P2
2022/05/05 00:02:15;;;;;;;16.08;8.80;;;;;;;18.85;59.35;98256.47;4443750;32;20086;-82
2022/05/05 00:04:42;;;;;;;15.68;8.60;;;;;;;19.07;59.01;98256.56;4443151;32;20153;-82
2022/05/05 00:07:09;;;;;;;15.02;8.63;;;;;;;19.33;58.24;98249.38;4443207;32;20455;-81
2022/05/05 00:09:37;;;;;;;19.50;8.90;;;;;;;19.13;57.87;98252.66;4444139;32;20452;-81
2022/05/05 00:14:49;;;;;;;16.52;8.43;;;;;;;19.85;55.79;98261.16;4443141;32;20101;-82
2022/05/05 00:17:16;;;;;;;15.93;8.30;;;;;;;19.74;56.04;98258.53;4444413;32;20093;-82
2022/05/05 00:19:43;;;;;;;15.15;7.47;;;;;;;20.46;53.52;98244.12;4445901;32;20099;-82
2022/05/05 00:22:11;;;;;;;16.23;8.25;;;;;;;20.11;54.85;98240.81;4445793;32;20061;-82
2022/05/05 00:24:38;;;;;;;17.48;8.48;;;;;;;19.86;54.93;98241.88;4431782;32;20126;-82
2022/05/05 00:27:07;;;;;;;14.82;8.07;;;;;;;19.75;55.09;98247.94;4432166;32;20096;-82
2022/05/05 00:29:34;;;;;;;14.35;8.05;;;;;;;19.80;55.18;98248.44;4431644;32;20108;-82
2022/05/05 00:32:01;;;;;;;16.45;8.52;;;;;;;20.25;53.68;98240.56;4419220;32;20078;-82
2022/05/05 00:34:29;;;;;;;17.23;8.73;;;;;;;18.18;60.31;98244.66;4445751;32;20345;-82
2022/05/05 00:36:56;;;;;;;15.45;8.45;;;;;;;17.95;61.23;98240.19;4446240;32;20132;-82
2022/05/05 00:39:23;;;;;;;15.60;8.60;;;;;;;18.26;60.11;98244.09;4446393;32;20112;-82
2022/05/05 00:41:51;;;;;;;12.55;7.03;;;;;;;18.94;57.83;98254.03;4446106;32;20078;-82
2022/05/05 00:44:18;;;;;;;13.52;7.05;;;;;;;20.00;52.99;98254.75;4431361;32;20113;-82
2022/05/05 00:46:51;;;;;;;16.48;7.32;;;;;;;20.01;52.90;98250.34;4446029;32;20592;-82
2022/05/05 00:49:19;;;;;;;13.52;7.20;;;;;;;19.49;54.32;98257.75;4446148;32;20173;-81
2022/05/05 00:51:46;;;;;;;12.65;6.82;;;;;;;18.80;57.71;98256.81;4445832;32;20671;-82
2022/05/05 00:54:14;;;;;;;13.35;7.32;;;;;;;19.48;54.76;98261.31;4431979;32;20105;-82
2022/05/05 00:56:44;;;;;;;14.15;7.85;;;;;;;19.53;54.47;98248.72;4445454;32;20099;-81
2022/05/05 00:59:11;;;;;;;13.80;7.45;;;;;;;19.69;54.04;98255.44;4431948;32;20072;-82
2022/05/05 01:01:39;;;;;;;14.40;7.62;;;;;;;19.93;53.49;98251.75;4445719;32;20089;-82
2022/05/05 01:04:07;;;;;;;13.75;7.43;;;;;;;20.13;52.95;98254.63;4431465;32;20097;-82
2022/05/05 01:06:36;;;;;;;13.98;7.55;;;;;;;20.60;51.32;98250.88;4445647;32;20792;-81
2022/05/05 01:09:06;;;;;;;13.85;7.22;;;;;;;21.14;49.69;98252.56;4431865;32;20436;-82
2022/05/05 01:11:33;;;;;;;12.93;6.85;;;;;;;20.85;50.24;98244.50;4445550;32;20671;-81
2022/05/05 01:14:00;;;;;;;13.15;6.97;;;;;;;20.30;51.87;98246.25;4445792;32;20119;-82
2022/05/05 01:16:28;;;;;;;15.20;7.70;;;;;;;20.13;52.20;98252.00;4446197;32;20108;-81
2022/05/05 01:18:56;;;;;;;14.18;7.05;;;;;;;20.01;52.49;98250.34;4445548;32;20436;-82
2022/05/05 01:21:23;;;;;;;16.12;7.60;;;;;;;19.74;53.69;98254.13;4445075;32;20104;-82
2022/05/05 01:23:50;;;;;;;14.32;7.53;;;;;;;19.72;53.81;98247.34;4445237;32;20305;-82
2022/05/05 01:29:04;;;;;;;16.50;8.57;;;;;;;19.40;55.05;98245.38;4433794;32;20100;-82
2022/05/05 01:31:31;;;;;;;13.70;7.20;;;;;;;20.15;52.95;98255.31;4445228;32;20129;-81
2022/05/05 01:33:58;;;;;;;14.90;8.20;;;;;;;21.07;49.64;98261.94;4418803;32;20168;-82
2022/05/05 01:36:25;;;;;;;13.93;6.60;;;;;;;20.44;51.33;98263.53;4445191;32;20075;-82
2022/05/05 01:38:52;;;;;;;14.02;7.28;;;;;;;19.84;53.12;98262.94;4444744;32;20153;-82
2022/05/05 01:41:21;;;;;;;13.60;7.80;;;;;;;19.62;53.83;98260.31;4444899;32;20395;-81
2022/05/05 01:43:48;;;;;;;21.62;8.27;;;;;;;19.42;54.59;98259.16;4445058;32;20107;-82
2022/05/05 01:46:15;;;;;;;14.55;7.95;;;;;;;19.61;54.17;98266.50;4444681;32;20122;-81
2022/05/05 01:48:43;;;;;;;15.80;8.35;;;;;;;19.51;54.11;98263.69;4444889;32;20155;-82
2022/05/05 01:51:10;;;;;;;15.00;7.85;;;;;;;19.85;53.25;98261.16;4430739;32;20124;-82
2022/05/05 01:53:36;;;;;;;15.80;8.02;;;;;;;20.37;51.84;98259.69;4444773;32;20702;-82
2022/05/05 01:56:11;;;;;;;14.43;7.37;;;;;;;19.69;54.02;98266.75;4444793;32;20141;-81
2022/05/05 01:58:42;;;;;;;16.80;8.50;;;;;;;19.04;55.73;98259.41;4444904;32;20104;-82
2022/05/05 02:01:10;;;;;;;15.68;8.38;;;;;;;18.89;56.22;98260.53;4431559;32;20069;-82
2022/05/05 02:03:37;;;;;;;17.15;8.93;;;;;;;19.08;55.74;98256.44;4445256;32;20057;-81
2022/05/05 02:06:05;;;;;;;16.77;8.52;;;;;;;19.21;55.46;98248.53;4444815;32;20110;-81
2022/05/05 02:08:32;;;;;;;15.38;7.97;;;;;;;20.13;52.43;98249.38;4430879;32;20081;-82
2022/05/05 02:10:59;;;;;;;15.70;8.70;;;;;;;19.76;53.95;98246.97;4444553;32;20149;-82
2022/05/05 02:13:26;;;;;;;15.98;8.70;;;;;;;19.36;55.20;98244.78;4443466;32;20426;-82
2022/05/05 02:15:53;;;;;;;16.25;9.10;;;;;;;19.71;53.89;98246.50;4443691;32;20085;-82
2022/05/05 02:18:20;;;;;;;17.42;9.35;;;;;;;19.58;54.57;98248.41;4444354;32;20788;-82
2022/05/05 02:20:47;;;;;;;14.50;8.35;;;;;;;20.06;53.35;98250.81;4431077;32;20111;-81
2022/05/05 02:23:15;;;;;;;15.70;8.77;;;;;;;19.84;53.84;98246.41;4445740;32;20067;-82
2022/05/05 02:25:42;;;;;;;18.65;8.93;;;;;;;20.18;53.14;98247.22;4444715;32;20093;-82
2022/05/05 02:28:10;;;;;;;17.05;8.80;;;;;;;19.94;53.61;98250.81;4444089;32;20218;-82
2022/05/05 02:30:37;;;;;;;15.50;8.43;;;;;;;19.79;54.22;98248.56;4444478;32;20110;-82
2022/05/05 02:33:04;;;;;;;15.02;7.97;;;;;;;20.23;52.55;98250.31;4444718;32;20100;-82
2022/05/05 02:35:31;;;;;;;15.15;8.02;;;;;;;19.76;53.46;98252.22;4444544;32;20105;-82
2022/05/05 02:40:44;;;;;;;13.13;7.25;;;;;;;19.79;52.98;98254.63;4431562;32;20545;-82
2022/05/05 02:43:11;;;;;;;15.38;8.23;;;;;;;19.48;53.87;98248.25;4430293;32;20119;-82
2022/05/05 02:45:38;;;;;;;16.10;8.27;;;;;;;20.36;51.84;98256.25;4444455;32;20148;-82
2022/05/05 02:48:05;;;;;;;15.55;8.50;;;;;;;19.96;53.04;98247.22;4444421;32;20102;-82
2022/05/05 02:50:32;;;;;;;17.15;9.43;;;;;;;19.54;54.09;98247.75;4444279;32;20187;-82
2022/05/05 02:54:47;;;;;;;15.15;8.55;;;;;;;19.44;54.61;98253.81;4444857;32;20089;-82
2022/05/05 02:55:53;;;;;;;17.57;9.03;;;;;;;20.13;53.00;98254.63;4444538;32;20825;-82
2022/05/05 02:58:20;;;;;;;14.38;8.40;;;;;;;19.83;53.55;98245.56;4445019;32;20154;-82
2022/05/05 03:00:47;;;;;;;15.80;8.70;;;;;;;19.83;53.97;98247.34;4444771;32;20428;-82
2022/05/05 03:03:14;;;;;;;17.05;8.98;;;;;;;19.83;54.01;98252.59;4444901;32;20114;-82
2022/05/05 03:05:41;;;;;;;16.95;8.70;;;;;;;20.18;53.13;98249.84;4445497;32;20117;-82
2022/05/05 03:08:08;;;;;;;16.58;9.20;;;;;;;19.87;53.84;98254.84;4445704;32;20081;-82
2022/05/05 03:10:35;;;;;;;19.67;9.35;;;;;;;19.82;53.92;98264.84;4432589;32;20117;-82
2022/05/05 03:13:02;;;;;;;15.57;9.10;;;;;;;19.84;53.92;98257.69;4447045;32;20114;-82
2022/05/05 03:15:29;;;;;;;15.82;8.43;;;;;;;20.13;52.23;98262.47;4446511;32;20165;-82
2022/05/05 03:17:56;;;;;;;14.93;7.37;;;;;;;19.46;53.26;98263.22;4446041;32;20057;-82
2022/05/05 03:20:23;;;;;;;14.13;7.37;;;;;;;19.37;53.12;98266.53;4446333;32;20069;-82
2022/05/05 03:22:50;;;;;;;12.77;7.07;;;;;;;17.91;57.00;98254.41;4445804;32;20115;-82
2022/05/05 03:25:17;;;;;;;13.80;7.75;;;;;;;17.61;57.64;98263.37;4445722;32;20156;-82
2022/05/05 03:27:44;;;;;;;14.20;7.65;;;;;;;18.73;53.82;98261.66;4446097;32;20148;-82
2022/05/05 03:30:11;;;;;;;14.55;8.20;;;;;;;18.14;56.14;98258.03;4446197;32;20156;-82
2022/05/05 03:32:38;;;;;;;14.40;7.37;;;;;;;18.52;55.15;98257.94;4445626;32;20074;-82
2022/05/05 03:35:05;;;;;;;16.15;7.93;;;;;;;18.62;54.93;98264.19;4445703;32;20119;-82
2022/05/05 03:37:32;;;;;;;16.58;8.57;;;;;;;19.02;53.97;98271.75;4445121;32;20089;-82
2022/05/05 03:39:59;;;;;;;14.48;8.50;;;;;;;18.80;54.83;98272.47;4444886;32;20090;-82
2022/05/05 03:42:26;;;;;;;18.73;9.18;;;;;;;18.66;55.98;98270.87;4445384;32;20774;-82
2022/05/05 03:44:53;;;;;;;15.95;7.93;;;;;;;18.74;55.69;98263.31;4444922;32;20094;-81
2022/05/05 03:47:20;;;;;;;16.27;8.48;;;;;;;19.35;53.70;98273.63;4445455;32;20152;-82
2022/05/05 03:49:47;;;;;;;17.08;8.60;;;;;;;18.94;55.38;98274.94;4444908;32;20153;-82
2022/05/05 03:52:14;;;;;;;18.65;9.63;;;;;;;19.54;53.73;98275.72;4446061;32;20101;-82
2022/05/05 03:54:41;;;;;;;18.73;9.95;;;;;;;19.90;52.51;98279.97;4446215;32;20061;-82
2022/05/05 03:57:08;;;;;;;20.25;10.52;;;;;;;19.26;54.99;98279.59;4446177;32;20084;-82
2022/05/05 03:59:35;;;;;;;20.37;11.27;;;;;;;19.20;56.07;98275.62;4445706;32;20089;-82
2022/05/05 04:02:03;;;;;;;19.60;10.07;;;;;;;18.82;58.11;98282.81;4445849;32;20106;-82
2022/05/05 04:04:31;;;;;;;18.10;8.07;;;;;;;18.95;57.22;98283.63;4445871;32;20102;-81
2022/05/05 04:06:58;;;;;;;16.12;7.78;;;;;;;19.67;52.12;98286.94;4445583;32;20160;-82
2022/05/05 04:09:24;;;;;;;13.13;7.05;;;;;;;19.28;52.58;98283.75;4432455;32;20061;-82
2022/05/05 04:11:51;;;;;;;14.85;7.53;;;;;;;19.01;52.57;98285.78;4446470;32;20125;-82
2022/05/05 04:14:18;;;;;;;13.45;6.97;;;;;;;17.80;56.63;98289.09;4446076;32;20105;-82
2022/05/05 04:16:45;;;;;;;14.18;7.75;;;;;;;17.90;56.90;98284.06;4446048;32;20085;-82
2022/05/05 04:19:12;;;;;;;14.07;7.97;;;;;;;18.04;56.19;98283.94;4446457;32;20138;-82
2022/05/05 04:21:39;;;;;;;13.73;7.47;;;;;;;18.60;54.78;98292.19;4446252;32;20106;-82
2022/05/05 04:24:06;;;;;;;19.58;8.00;;;;;;;18.72;54.92;98290.53;4446831;32;20177;-82
2022/05/05 04:26:34;;;;;;;14.98;8.15;;;;;;;19.04;54.52;98293.41;4432439;32;20163;-82
2022/05/05 04:29:01;;;;;;;15.45;7.95;;;;;;;19.46;52.84;98296.38;4446936;32;20179;-82
2022/05/05 04:31:29;;;;;;;15.27;7.70;;;;;;;19.43;53.14;98294.00;4447171;32;20113;-82
2022/05/05 04:33:57;;;;;;;14.45;7.72;;;;;;;19.30;53.31;98294.09;4446732;32;20116;-82
2022/05/05 04:36:24;;;;;;;15.25;7.35;;;;;;;19.91;51.68;98292.13;4446788;32;20057;-82
2022/05/05 04:38:51;;;;;;;15.60;8.02;;;;;;;19.70;52.52;98304.22;4446911;32;20081;-82
2022/05/05 04:41:18;;;;;;;14.70;7.70;;;;;;;19.29;53.93;98305.50;4446262;32;20077;-82
2022/05/05 04:43:45;;;;;;;14.50;7.87;;;;;;;19.78;53.63;98310.56;4446940;32;20400;-82
2022/05/05 04:46:12;;;;;;;16.27;7.65;;;;;;;20.59;51.84;98300.78;4446854;32;20460;-82
2022/05/05 04:48:39;;;;;;;14.18;6.90;;;;;;;21.92;48.72;98306.44;4447072;32;20138;-82
2022/05/05 04:51:06;;;;;;;11.45;6.85;;;;;;;23.26;44.28;98310.44;4447589;32;20074;-82
2022/05/05 04:53:33;;;;;;;14.45;7.30;;;;;;;24.13;41.46;98310.31;4448077;32;20846;-82
2022/05/05 04:56:00;;;;;;;17.45;8.20;;;;;;;24.38;41.04;98305.41;4447468;32;20160;-82
2022/05/05 04:58:26;;;;;;;14.43;7.90;;;;;;;25.32;39.28;98313.84;4448792;32;20104;-82
2022/05/05 05:00:53;;;;;;;14.55;7.60;;;;;;;26.02;37.82;98305.94;4449263;32;20098;-82
2022/05/05 05:03:32;;;;;;;12.60;7.20;;;;;;;26.39;37.71;98313.59;4448910;32;20157;-82
2022/05/05 05:06:04;;;;;;;13.70;8.10;;;;;;;26.86;36.97;98311.25;4449951;32;20858;-80
2022/05/05 05:08:32;;;;;;;14.75;8.27;;;;;;;27.51;35.37;98318.47;4452006;32;20069;-80
2022/05/05 05:10:59;;;;;;;13.27;7.82;;;;;;;27.99;34.65;98312.31;4450269;32;20105;-80
2022/05/05 05:13:26;;;;;;;16.15;9.63;;;;;;;28.04;34.05;98309.16;4450756;32;20093;-80
2022/05/05 05:15:53;;;;;;;15.05;8.48;;;;;;;28.06;34.18;98318.59;4449728;32;20076;-80
2022/05/05 05:18:20;;;;;;;14.60;8.30;;;;;;;27.76;34.92;98311.38;4449970;32;20069;-81
2022/05/05 05:20:48;;;;;;;14.52;8.63;;;;;;;26.67;37.10;98308.87;4448556;32;20491;-80
2022/05/05 05:23:15;;;;;;;15.40;8.63;;;;;;;27.09;36.53;98304.38;4448228;32;20077;-80
2022/05/05 05:25:42;;;;;;;14.02;8.57;;;;;;;27.79;35.63;98306.56;4448155;32;20113;-80
2022/05/05 05:28:09;;;;;;;14.50;8.77;;;;;;;27.25;36.30;98313.34;4448716;32;20050;-80
2022/05/05 05:30:38;;;;;;;14.70;9.05;;;;;;;28.06;34.87;98313.28;4448694;32;20155;-80
2022/05/05 05:33:06;;;;;;;15.85;9.60;;;;;;;27.82;35.34;98313.34;4449640;32;20659;-80
2022/05/05 05:35:33;;;;;;;16.70;9.75;;;;;;;28.13;34.79;98326.69;4436195;32;20108;-80
2022/05/05 05:38:00;;;;;;;16.20;9.68;;;;;;;25.99;39.02;98317.66;4448433;32;20100;-80
2022/05/05 05:40:27;;;;;;;19.20;10.52;;;;;;;26.16;38.94;98319.41;4448894;32;20165;-80
2022/05/05 05:42:55;;;;;;;18.02;9.40;;;;;;;24.60;41.97;98314.72;4450194;32;20128;-80
2022/05/05 05:45:22;;;;;;;17.40;10.25;;;;;;;24.29;44.33;98317.59;4450663;32;20058;-80
2022/05/05 05:47:49;;;;;;;18.90;10.05;;;;;;;25.15;42.02;98326.06;4451234;32;20096;-80
2022/05/05 05:50:16;;;;;;;16.77;9.70;;;;;;;26.23;39.52;98338.09;4451287;32;20113;-80
2022/05/05 05:52:43;;;;;;;17.92;9.98;;;;;;;24.46;42.80;98327.44;4435762;32;20117;-81
2022/05/05 05:55:11;;;;;;;16.87;9.73;;;;;;;24.77;42.52;98337.66;4445695;32;20435;-80
2022/05/05 05:57:38;;;;;;;18.30;9.75;;;;;;;24.59;43.13;98329.72;4446093;32;20129;-79
2022/05/05 06:00:06;;;;;;;15.75;9.90;;;;;;;23.46;45.96;98332.34;4434497;32;20173;-81
2022/05/05 06:05:19;;;;;;;17.00;10.25;;;;;;;24.00;45.09;98337.97;4441168;32;20107;-82
2022/05/05 06:07:46;;;;;;;16.10;8.75;;;;;;;22.63;49.61;98327.50;4441075;32;20155;-82
2022/05/05 06:10:13;;;;;;;18.30;9.77;;;;;;;22.83;48.92;98342.38;4440793;32;20066;-82
2022/05/05 06:12:40;;;;;;;18.33;9.98;;;;;;;21.51;50.65;98333.56;4440334;32;20194;-80
2022/05/05 06:15:08;;;;;;;15.95;9.48;;;;;;;21.33;52.89;98328.84;4439187;32;20089;-80
2022/05/05 06:17:35;;;;;;;19.48;10.10;;;;;;;21.60;52.16;98338.06;4427147;32;20085;-79
2022/05/05 06:20:03;;;;;;;14.85;8.40;;;;;;;21.69;52.15;98339.06;4426604;32;20124;-83
2022/05/05 06:22:30;;;;;;;17.98;8.82;;;;;;;21.41;53.27;98345.78;4440869;32;20471;-79
2022/05/05 06:24:57;;;;;;;18.02;9.48;;;;;;;21.04;54.93;98336.44;4440620;32;20111;-78
2022/05/05 06:27:25;;;;;;;14.40;8.27;;;;;;;21.26;54.03;98342.59;4440298;32;20082;-79
2022/05/05 06:29:52;;;;;;;22.00;10.02;;;;;;;21.59;53.66;98350.34;4440630;32;20129;-79
2022/05/05 06:32:18;;;;;;;18.10;8.90;;;;;;;22.00;52.33;98360.94;4440828;32;20152;-78
2022/05/05 06:34:46;;;;;;;17.15;9.02;;;;;;;21.96;51.26;98360.38;4430271;32;326107;-79
2022/05/05 06:37:13;;;;;;;14.80;8.48;;;;;;;21.91;51.48;98357.34;4440829;32;20086;-79
2022/05/05 06:39:40;;;;;;;21.50;9.68;;;;;;;21.69;51.65;98360.06;4440863;32;20141;-78
2022/05/05 06:42:08;;;;;;;17.45;9.40;;;;;;;21.95;52.13;98361.34;4440478;32;20116;-80
2022/05/05 06:44:35;;;;;;;17.73;10.75;;;;;;;21.97;53.10;98358.59;4427801;32;20066;-81
2022/05/05 06:52:38;;;;;;;14.38;7.78;;;;;;;21.07;56.08;98357.19;4434545;32;20324;-85
2022/05/05 06:58:34;;;;;;;13.52;7.35;;;;;;;20.70;55.95;98348.81;4424511;32;20148;-82
2022/05/05 07:03:47;;;;;;;15.40;8.23;;;;;;;21.08;55.55;98366.72;4412734;32;20070;-83
2022/05/05 07:06:19;;;;;;;14.32;7.55;;;;;;;22.09;52.00;98347.06;4625650;26;20126;-79
2022/05/05 07:11:32;;;;;;;13.48;6.65;;;;;;;22.24;51.68;98366.81;4454939;32;20076;-83
2022/05/05 07:14:01;;;;;;;15.55;6.32;;;;;;;21.67;53.56;98365.44;4440183;32;20101;-82
2022/05/05 07:16:28;;;;;;;14.52;7.50;;;;;;;21.44;55.03;98374.38;4454134;32;20102;-82
2022/05/05 07:18:55;;;;;;;13.55;6.90;;;;;;;22.44;50.92;98380.88;4453976;32;20080;-81
2022/05/05 07:21:22;;;;;;;11.82;6.62;;;;;;;21.88;51.25;98371.53;4454186;32;20106;-85
2022/05/05 07:23:49;;;;;;;14.85;7.95;;;;;;;22.78;50.19;98374.34;4453763;32;20080;-82
2022/05/05 07:26:16;;;;;;;13.48;6.32;;;;;;;22.06;50.52;98377.06;4452631;32;20070;-83
2022/05/05 07:28:43;;;;;;;13.55;6.30;;;;;;;23.33;45.16;98382.66;4598219;26;20066;-81
2022/05/05 07:31:10;;;;;;;12.18;6.35;;;;;;;24.09;42.49;98358.19;4443620;32;20165;-79
2022/05/05 07:33:38;;;;;;;11.57;6.10;;;;;;;24.05;42.49;98394.56;4443385;32;20160;-82
2022/05/05 07:36:10;;;;;;;11.60;6.03;;;;;;;24.90;40.42;98387.47;4446946;32;20080;-81
2022/05/05 07:38:38;;;;;;;12.13;6.55;;;;;;;24.37;42.14;98391.59;4446448;32;20077;-82
2022/05/05 07:41:05;;;;;;;12.82;6.90;;;;;;;24.81;40.94;98379.44;4446506;32;20546;-80
2022/05/05 07:43:32;;;;;;;12.90;6.65;;;;;;;26.09;38.06;98379.19;4440267;32;20421;-81
2022/05/05 07:46:00;;;;;;;11.02;5.60;;;;;;;23.88;43.06;98388.19;4443945;32;20120;-82
2022/05/05 07:48:27;;;;;;;14.20;7.05;;;;;;;25.18;40.30;98391.75;4442696;32;20078;-83
2022/05/05 07:50:54;;;;;;;11.02;6.40;;;;;;;24.02;44.10;98394.00;4440032;32;20111;-84
2022/05/05 07:53:21;;;;;;;13.98;6.75;;;;;;;24.41;44.11;98389.47;4426449;32;20407;-83
2022/05/05 07:55:48;;;;;;;12.77;6.43;;;;;;;24.16;43.17;98391.75;4439818;32;20093;-82
2022/05/05 07:58:15;;;;;;;12.70;6.53;;;;;;;23.56;43.52;98393.72;4439806;32;20692;-83
2022/05/05 08:00:42;;;;;;;13.95;7.05;;;;;;;24.07;44.84;98394.41;4439966;32;20093;-84
2022/05/05 08:03:09;;;;;;;16.75;7.43;;;;;;;24.01;45.14;98403.69;4440118;32;20154;-84
2022/05/05 08:05:36;;;;;;;13.55;6.87;;;;;;;24.15;45.47;98403.28;4426436;32;20082;-82
2022/05/05 08:08:04;;;;;;;14.13;7.57;;;;;;;24.27;44.54;98409.22;4440907;32;20480;-83
2022/05/05 08:10:32;;;;;;;14.25;7.22;;;;;;;25.13;41.71;98406.41;4440744;32;20093;-84
2022/05/05 08:12:59;;;;;;;14.10;7.20;;;;;;;26.47;39.82;98422.09;4439926;32;20105;-85
2022/05/05 08:15:26;;;;;;;13.10;7.78;;;;;;;25.89;40.76;98417.38;4440340;32;20168;-83
2022/05/05 08:17:53;;;;;;;13.30;6.37;;;;;;;27.02;37.72;98416.44;4442036;32;20054;-84
2022/05/05 08:20:20;;;;;;;15.35;6.90;;;;;;;27.51;37.16;98421.81;4444672;32;20093;-86
2022/05/05 08:22:47;;;;;;;13.80;6.97;;;;;;;25.97;39.51;98419.25;4427864;32;20165;-85
2022/05/05 08:30:47;;;;;;;15.43;7.60;;;;;;;26.20;39.41;98436.28;4439383;32;20145;-77
2022/05/05 08:33:14;;;;;;;12.90;7.57;;;;;;;26.07;39.52;98425.28;4439220;32;20101;-76
2022/05/05 08:35:42;;;;;;;12.30;7.53;;;;;;;25.79;42.18;98421.91;4439032;32;20104;-76
2022/05/05 08:38:09;;;;;;;12.68;7.78;;;;;;;24.28;45.33;98425.88;4439886;32;20150;-76
2022/05/05 08:40:39;;;;;;;11.60;6.32;;;;;;;25.99;40.09;98425.22;4440997;32;20169;-77
2022/05/05 08:43:06;;;;;;;12.32;6.85;;;;;;;26.90;37.18;98430.87;4441418;32;20470;-76
2022/05/05 08:45:34;;;;;;;11.63;6.85;;;;;;;27.57;35.43;98421.19;4427538;32;20145;-76
2022/05/05 08:48:06;;;;;;;11.73;6.80;;;;;;;25.57;40.54;98421.38;4427110;32;20107;-76
2022/05/05 08:50:35;;;;;;;13.60;7.12;;;;;;;25.77;40.16;98423.87;4441456;32;20100;-76
2022/05/05 08:53:04;;;;;;;11.95;7.07;;;;;;;26.17;39.59;98426.84;4441458;32;20097;-76
2022/05/05 08:55:32;;;;;;;10.30;6.25;;;;;;;26.08;39.63;98433.06;4441080;32;20176;-76
2022/05/05 08:58:02;;;;;;;11.32;6.22;;;;;;;26.16;39.54;98434.94;4441013;32;20082;-76
2022/05/05 09:00:30;;;;;;;12.05;6.03;;;;;;;27.17;37.29;98436.00;4440314;32;20164;-77
2022/05/05 09:03:00;;;;;;;12.07;6.18;;;;;;;28.88;33.33;98441.31;4440791;32;20588;-76
2022/05/05 09:05:42;;;;;;;12.30;5.95;;;;;;;28.13;33.66;98444.25;4440925;32;20507;-76
2022/05/05 09:08:25;;;;;;;14.25;6.72;;;;;;;27.69;35.46;98438.44;4440488;32;20443;-76
2022/05/05 09:10:56;;;;;;;12.15;6.05;;;;;;;28.24;33.25;98440.44;4440859;32;20140;-77
2022/05/05 09:13:27;;;;;;;10.45;5.70;;;;;;;26.95;36.01;98442.69;4440641;32;20152;-77
2022/05/05 09:15:55;;;;;;;14.48;5.80;;;;;;;28.44;32.72;98439.09;4440299;32;20128;-77
2022/05/05 09:18:26;;;;;;;11.25;5.97;;;;;;;29.19;33.50;98440.50;4414801;32;20108;-77
2022/05/05 09:20:53;;;;;;;11.73;5.53;;;;;;;27.89;33.69;98442.44;4441428;32;20109;-77
2022/05/05 09:23:30;;;;;;;11.68;5.50;;;;;;;27.84;33.57;98436.78;4440947;32;20109;-76
2022/05/05 09:25:57;;;;;;;;;;;;;;;28.49;32.91;98444.72;4441336;32;20116;-77
2022/05/05 09:28:27;;;;;;;13.52;5.18;;;;;;;27.58;33.09;98442.22;4426949;32;20028;-77
2022/05/05 09:30:55;;;;;;;9.88;6.22;;;;;;;26.27;36.91;98434.69;4441299;32;20161;-77
2022/05/05 09:33:34;;;;;;;10.32;5.82;;;;;;;26.47;36.30;98438.78;4441310;32;20089;-77
2022/05/05 09:36:27;;;;;;;10.85;5.32;;;;;;;26.64;35.87;98434.44;4440819;32;20558;-76
2022/05/05 09:39:04;;;;;;;14.25;5.37;;;;;;;27.33;34.30;98436.06;4433025;32;20103;-77
2022/05/05 09:41:43;;;;;;;9.25;3.95;;;;;;;26.75;38.37;98439.44;4441151;32;20156;-77
2022/05/05 09:44:21;;;;;;;12.63;5.85;;;;;;;26.59;36.71;98441.19;4440888;32;20101;-78
2022/05/05 09:46:48;;;;;;;10.27;4.90;;;;;;;25.47;39.23;98435.62;4440992;32;20085;-77
2022/05/05 09:49:18;;;;;;;11.60;5.32;;;;;;;25.94;39.12;98441.53;4440659;32;20151;-77
2022/05/05 09:57:39;;;;;;;8.93;4.05;;;;;;;25.68;40.03;98439.63;4440965;32;20106;-77
2022/05/05 09:57:41;;;;;;;9.65;4.32;;;;;;;26.00;38.37;98442.75;4440527;32;20128;-75
2022/05/05 10:05:43;;;;;;;10.65;4.57;;;;;;;26.35;35.01;98444.47;4429028;32;20244;-75
2022/05/05 10:08:14;;;;;;;7.75;3.80;;;;;;;26.12;35.50;98433.56;4426960;32;20152;-75
2022/05/05 10:10:45;;;;;;;10.52;4.05;;;;;;;26.48;33.79;98439.66;4426933;32;20132;-76
2022/05/05 10:13:13;;;;;;;10.30;4.10;;;;;;;27.71;32.16;98436.47;4427420;32;20503;-75
2022/05/05 10:15:40;;;;;;;9.32;3.78;;;;;;;26.66;34.88;98434.25;4440705;32;20148;-76
2022/05/05 10:18:23;;;;;;;8.02;3.80;;;;;;;27.54;32.98;98434.75;4440657;32;20090;-76
2022/05/05 10:20:51;;;;;;;13.18;4.37;;;;;;;27.99;31.65;98439.63;4427026;32;20147;-75
2022/05/05 10:23:27;;;;;;;9.25;4.15;;;;;;;28.17;31.71;98434.12;4426910;32;20111;-75
2022/05/05 10:25:54;;;;;;;9.85;4.10;;;;;;;27.64;31.44;98433.59;4440226;32;20101;-76
2022/05/05 10:28:43;;;;;;;11.90;4.03;;;;;;;28.41;32.87;98436.78;4440711;32;20089;-76
2022/05/05 10:31:11;;;;;;;8.00;3.70;;;;;;;28.97;30.10;98431.50;4440768;32;20517;-76
2022/05/05 10:33:58;;;;;;;9.40;4.00;;;;;;;29.63;29.22;98433.63;4440491;32;20101;-75
2022/05/05 10:36:25;;;;;;;8.83;4.03;;;;;;;29.06;27.97;98428.63;4440614;32;20184;-75
2022/05/05 10:38:52;;;;;;;8.20;3.50;;;;;;;28.39;29.92;98430.81;4440281;32;20089;-77
2022/05/05 10:41:41;;;;;;;6.87;3.60;;;;;;;29.07;29.09;98429.44;4426864;32;20131;-77
2022/05/05 10:44:19;;;;;;;8.65;3.87;;;;;;;28.05;32.76;98430.16;4440486;32;20121;-76
2022/05/05 10:47:03;;;;;;;5.97;3.40;;;;;;;29.11;28.47;98422.78;4440257;32;20097;-75
2022/05/05 10:49:34;;;;;;;8.18;3.60;;;;;;;27.98;29.51;98426.53;4440763;32;20104;-75
2022/05/05 10:52:10;;;;;;;6.82;3.65;;;;;;;27.42;31.80;98425.44;4440710;32;20103;-74
2022/05/05 10:54:41;;;;;;;8.70;3.85;;;;;;;27.71;33.84;98414.44;4440296;32;20141;-74
2022/05/05 10:57:26;;;;;;;9.38;3.60;;;;;;;27.62;30.24;98419.69;4440607;32;20116;-74
2022/05/05 11:00:13;;;;;;;7.40;3.45;;;;;;;27.27;31.16;98418.16;4439988;32;20167;-75
2022/05/05 11:03:03;;;;;;;9.60;4.20;;;;;;;27.91;32.15;98427.19;4440395;32;20462;-74
2022/05/05 11:05:32;;;;;;;7.30;3.65;;;;;;;27.89;30.49;98418.56;4431197;32;20128;-75
2022/05/05 11:08:08;;;;;;;7.85;3.75;;;;;;;27.82;32.49;98419.41;4440268;32;20164;-75
2022/05/05 11:10:41;;;;;;;8.35;3.85;;;;;;;27.38;33.17;98417.84;4440402;32;20097;-75
2022/05/05 11:13:37;;;;;;;5.95;2.90;;;;;;;27.10;33.03;98417.25;4440494;32;20116;-74
2022/05/05 11:22:24;;;;;;;9.70;3.78;;;;;;;29.15;28.46;98416.13;4439990;32;20364;-75
2022/05/05 11:24:52;;;;;;;9.73;3.93;;;;;;;28.85;29.09;98423.03;4427470;32;20140;-82
2022/05/05 11:27:21;;;;;;;7.55;3.67;;;;;;;28.43;30.89;98412.72;4444948;32;20113;-82
2022/05/05 11:29:56;;;;;;;8.73;3.65;;;;;;;27.77;31.04;98411.12;4426170;32;20127;-82
2022/05/05 11:32:32;;;;;;;9.60;4.00;;;;;;;27.77;32.35;98403.16;4426456;32;20427;-83
2022/05/05 11:35:00;;;;;;;8.27;3.87;;;;;;;27.62;32.83;98402.94;4440049;32;20653;-82
2022/05/05 11:37:28;;;;;;;8.52;3.85;;;;;;;26.70;32.09;98393.28;4442292;32;20112;-82
2022/05/05 11:39:56;;;;;;;6.65;3.55;;;;;;;26.88;35.16;98404.56;4447997;32;20105;-81
2022/05/05 11:42:23;;;;;;;8.43;4.03;;;;;;;27.45;34.30;98394.19;4426208;32;20129;-81
2022/05/05 11:44:50;;;;;;;8.90;4.07;;;;;;;27.81;30.19;98388.56;4440073;32;20137;-82
2022/05/05 11:47:20;;;;;;;9.02;3.70;;;;;;;27.16;34.83;98394.63;4440109;32;20094;-80
2022/05/05 11:49:56;;;;;;;8.70;3.85;;;;;;;27.21;33.84;98392.28;4425780;32;20124;-81
2022/05/05 11:52:24;;;;;;;;;;;;;;;28.29;29.73;98395.69;4440421;32;20089;-81
2022/05/05 11:54:53;;;;;;;8.35;3.30;;;;;;;25.68;31.86;98381.50;4439946;32;20361;-81
2022/05/05 11:57:40;;;;;;;6.60;3.30;;;;;;;26.25;31.42;98383.72;4425831;32;20110;-82
2022/05/05 12:02:55;;;;;;;6.47;3.30;;;;;;;25.68;29.94;98381.50;4432439;32;20080;-82
2022/05/05 12:05:24;;;;;;;12.35;3.22;;;;;;;25.36;32.16;98386.50;4448076;32;20097;-80
2022/05/05 12:07:53;;;;;;;9.02;3.10;;;;;;;26.95;28.87;98376.47;4448825;32;20074;-81
2022/05/05 12:10:21;;;;;;;9.23;3.53;;;;;;;25.78;30.83;98383.25;4451114;32;20113;-81
2022/05/05 12:12:59;;;;;;;7.25;3.40;;;;;;;26.97;29.34;98385.09;4446548;32;20081;-81
2022/05/05 12:15:27;;;;;;;7.25;3.42;;;;;;;26.91;28.68;98385.75;4445917;32;20424;-80
2022/05/05 12:17:58;;;;;;;8.05;3.28;;;;;;;26.69;29.39;98389.81;4428800;32;20078;-81
2022/05/05 12:20:26;;;;;;;6.60;3.20;;;;;;;26.44;29.92;98385.37;4443265;32;20111;-81
2022/05/05 12:22:55;;;;;;;7.32;3.20;;;;;;;26.72;29.81;98394.78;4428445;32;20160;-81
2022/05/05 12:25:24;;;;;;;7.82;3.50;;;;;;;25.07;33.50;98384.87;4427791;32;20499;-80